createdAt,value
2018-01-24T00:00:17.151Z,3.67
2018-01-24T00:01:16.856Z,3.66
2018-01-24T00:02:17.127Z,3.75
2018-01-24T00:03:16.825Z,3.67
2018-01-24T00:04:17.090Z,3.71
2018-01-24T00:05:17.081Z,3.69
2018-01-24T00:06:17.047Z,3.66
2018-01-24T00:07:17.387Z,3.64
2018-01-24T00:08:16.748Z,3.72
2018-01-24T00:09:16.729Z,3.76
2018-01-24T00:10:16.735Z,3.72
2018-01-24T00:11:16.969Z,3.64
2018-01-24T00:12:17.223Z,3.69
2018-01-24T00:13:16.936Z,3.69
2018-01-24T00:14:16.647Z,3.67
2018-01-24T00:15:16.905Z,3.64
2018-01-24T00:16:16.626Z,3.64
2018-01-24T00:17:16.599Z,3.72
2018-01-24T00:18:16.611Z,3.69
2018-01-24T00:19:16.584Z,3.69
2018-01-24T00:20:16.554Z,3.67
2018-01-24T00:21:16.563Z,3.64
2018-01-24T00:22:16.521Z,3.75
2018-01-24T00:23:16.506Z,3.64
2018-01-24T00:24:17.040Z,3.72
2018-01-24T00:25:16.475Z,3.79
2018-01-24T00:26:16.457Z,3.76
2018-01-24T00:27:16.710Z,3.74
2018-01-24T00:28:16.423Z,3.76
2018-01-24T00:29:16.701Z,3.78
2018-01-24T00:30:16.954Z,3.75
2018-01-24T00:31:16.919Z,3.66
2018-01-24T00:32:16.926Z,3.78
2018-01-24T00:33:16.634Z,3.78
2018-01-24T00:34:16.601Z,3.76
2018-01-24T00:35:16.315Z,3.74
2018-01-24T00:36:16.297Z,3.69
2018-01-24T00:37:16.818Z,3.76
2018-01-24T00:38:16.557Z,3.74
2018-01-24T00:39:16.268Z,3.76
2018-01-24T00:40:16.232Z,3.76
2018-01-24T00:41:16.791Z,3.74
2018-01-24T00:42:16.204Z,3.76
2018-01-24T00:43:16.185Z,3.74
2018-01-24T00:44:16.177Z,3.76
2018-01-24T00:45:16.432Z,3.74
2018-01-24T00:46:16.430Z,3.81
2018-01-24T00:47:16.890Z,3.79
2018-01-24T00:48:16.378Z,3.78
2018-01-24T00:49:16.359Z,3.81
2018-01-24T00:50:16.071Z,3.79
2018-01-24T00:51:16.330Z,3.82
2018-01-24T00:52:16.041Z,3.79
2018-01-24T00:53:16.048Z,3.79
2018-01-24T00:54:16.282Z,3.82
2018-01-24T00:55:16.263Z,3.84
2018-01-24T00:56:16.569Z,3.79
2018-01-24T00:57:16.233Z,3.81
2018-01-24T00:58:15.947Z,3.74
2018-01-24T00:59:16.200Z,3.72
2018-01-24T01:00:15.937Z,3.72
2018-01-24T01:01:15.902Z,3.82
2018-01-24T01:02:16.156Z,3.69
2018-01-24T01:03:15.865Z,3.79
2018-01-24T01:04:15.859Z,3.79
2018-01-24T01:05:16.114Z,3.76
2018-01-24T01:06:15.816Z,3.79
2018-01-24T01:07:16.076Z,3.72
2018-01-24T01:08:16.056Z,3.79
2018-01-24T01:09:16.334Z,3.75
2018-01-24T01:10:16.315Z,3.74
2018-01-24T01:11:16.010Z,3.76
2018-01-24T01:12:15.757Z,3.81
2018-01-24T01:13:15.709Z,3.79
2018-01-24T01:14:15.686Z,3.78
2018-01-24T01:15:15.957Z,3.81
2018-01-24T01:16:15.658Z,3.82
2018-01-24T01:17:15.644Z,3.85
2018-01-24T01:18:15.900Z,3.79
2018-01-24T01:19:16.152Z,3.85
2018-01-24T01:20:15.596Z,3.78
2018-01-24T01:21:15.866Z,3.76
2018-01-24T01:22:15.584Z,3.84
2018-01-24T01:23:15.872Z,3.86
2018-01-24T01:24:16.082Z,3.76
2018-01-24T01:25:15.517Z,3.76
2018-01-24T01:26:15.787Z,3.76
2018-01-24T01:27:15.776Z,3.79
2018-01-24T01:28:15.467Z,3.82
2018-01-24T01:29:15.476Z,3.78
2018-01-24T01:30:15.719Z,3.85
2018-01-24T01:31:15.419Z,3.79
2018-01-24T01:32:15.402Z,3.81
2018-01-24T01:33:15.385Z,3.81
2018-01-24T01:34:15.377Z,3.79
2018-01-24T01:35:15.643Z,3.78
2018-01-24T01:36:15.886Z,3.81
2018-01-24T01:37:15.868Z,3.86
2018-01-24T01:38:15.584Z,3.81
2018-01-24T01:39:15.292Z,3.82
2018-01-24T01:40:15.290Z,3.86
2018-01-24T01:41:15.260Z,3.93
2018-01-24T01:42:15.244Z,3.84
2018-01-24T01:43:15.516Z,3.86
2018-01-24T01:44:15.210Z,3.84
2018-01-24T01:45:15.197Z,3.82
2018-01-24T01:46:15.454Z,3.78
2018-01-24T01:47:15.433Z,3.81
2018-01-24T01:48:15.148Z,3.82
2018-01-24T01:49:15.153Z,3.74
2018-01-24T01:50:15.392Z,3.78
2018-01-24T01:51:15.369Z,3.79
2018-01-24T01:52:15.084Z,3.78
2018-01-24T01:53:15.369Z,3.79
2018-01-24T01:54:15.329Z,3.86
2018-01-24T01:55:15.040Z,3.78
2018-01-24T01:56:15.023Z,3.78
2018-01-24T01:57:15.030Z,3.76
2018-01-24T01:58:15.535Z,3.79
2018-01-24T01:59:14.976Z,3.82
2018-01-24T02:00:15.231Z,3.79
2018-01-24T02:01:15.214Z,3.74
2018-01-24T02:02:15.201Z,3.79
2018-01-24T02:03:15.181Z,3.72
2018-01-24T02:04:14.893Z,3.74
2018-01-24T02:05:14.877Z,3.76
2018-01-24T02:06:14.866Z,3.79
2018-01-24T02:07:14.852Z,3.75
2018-01-24T02:08:15.395Z,3.76
2018-01-24T02:09:15.086Z,3.76
2018-01-24T02:10:14.804Z,3.74
2018-01-24T02:11:14.784Z,3.79
2018-01-24T02:12:15.038Z,3.84
2018-01-24T02:13:14.749Z,3.84
2018-01-24T02:14:15.006Z,3.84
2018-01-24T02:15:14.735Z,3.79
2018-01-24T02:16:14.703Z,3.86
2018-01-24T02:17:14.686Z,3.82
2018-01-24T02:18:14.703Z,3.85
2018-01-24T02:19:14.655Z,3.78
2018-01-24T02:20:14.641Z,3.79
2018-01-24T02:21:14.623Z,3.81
2018-01-24T02:22:14.878Z,3.9
2018-01-24T02:23:14.592Z,3.86
2018-01-24T02:24:14.576Z,3.82
2018-01-24T02:25:14.846Z,3.82
2018-01-24T02:26:14.558Z,3.82
2018-01-24T02:27:14.531Z,3.82
2018-01-24T02:28:14.785Z,3.9
2018-01-24T02:29:14.870Z,3.82
2018-01-24T02:30:14.756Z,3.85
2018-01-24T02:31:14.745Z,3.84
2018-01-24T02:32:14.721Z,3.89
2018-01-24T02:33:14.435Z,3.82
2018-01-24T02:34:14.421Z,3.85
2018-01-24T02:35:14.674Z,3.82
2018-01-24T02:36:14.928Z,3.84
2018-01-24T02:37:14.919Z,3.9
2018-01-24T02:38:14.625Z,3.86
2018-01-24T02:39:14.340Z,3.82
2018-01-24T02:40:14.604Z,3.81
2018-01-24T02:41:14.577Z,3.92
2018-01-24T02:42:14.563Z,3.84
2018-01-24T02:43:14.548Z,3.9
2018-01-24T02:44:14.543Z,3.82
2018-01-24T02:45:14.261Z,3.84
2018-01-24T02:46:14.229Z,3.84
2018-01-24T02:47:14.489Z,3.82
2018-01-24T02:48:14.196Z,3.89
2018-01-24T02:49:14.450Z,3.86
2018-01-24T02:50:14.443Z,3.86
2018-01-24T02:51:14.425Z,3.86
2018-01-24T02:52:14.184Z,3.76
2018-01-24T02:53:14.393Z,3.85
2018-01-24T02:54:14.117Z,3.9
2018-01-24T02:55:14.086Z,3.82
2018-01-24T02:56:14.355Z,3.81
2018-01-24T02:57:14.332Z,3.82
2018-01-24T02:58:14.038Z,3.84
2018-01-24T02:59:14.302Z,3.82
2018-01-24T03:00:14.279Z,3.82
2018-01-24T03:01:14.258Z,3.86
2018-01-24T03:02:13.989Z,3.82
2018-01-24T03:03:13.958Z,3.84
2018-01-24T03:04:13.963Z,3.78
2018-01-24T03:05:14.204Z,3.82
2018-01-24T03:06:13.911Z,3.81
2018-01-24T03:07:13.895Z,3.81
2018-01-24T03:08:13.883Z,3.79
2018-01-24T03:09:13.861Z,3.9
2018-01-24T03:10:13.850Z,3.89
2018-01-24T03:11:13.833Z,3.89
2018-01-24T03:12:14.107Z,3.82
2018-01-24T03:13:13.816Z,3.9
2018-01-24T03:14:13.785Z,3.81
2018-01-24T03:15:13.770Z,3.82
2018-01-24T03:16:13.766Z,3.86
2018-01-24T03:17:14.011Z,3.78
2018-01-24T03:18:13.744Z,3.84
2018-01-24T03:19:13.994Z,3.78
2018-01-24T03:20:13.689Z,3.86
2018-01-24T03:21:13.674Z,3.82
2018-01-24T03:22:13.668Z,3.86
2018-01-24T03:23:13.661Z,3.84
2018-01-24T03:24:13.942Z,3.85
2018-01-24T03:25:13.616Z,3.84
2018-01-24T03:26:13.595Z,3.94
2018-01-24T03:27:13.591Z,3.9
2018-01-24T03:28:13.563Z,3.82
2018-01-24T03:29:13.545Z,3.89
2018-01-24T03:30:13.532Z,3.9
2018-01-24T03:31:13.518Z,3.9
2018-01-24T03:32:13.770Z,3.9
2018-01-24T03:33:13.486Z,3.89
2018-01-24T03:34:13.742Z,3.92
2018-01-24T03:35:13.455Z,3.89
2018-01-24T03:36:13.433Z,3.94
2018-01-24T03:37:13.978Z,3.94
2018-01-24T03:38:13.954Z,3.93
2018-01-24T03:39:13.659Z,3.96
2018-01-24T03:40:13.914Z,3.92
2018-01-24T03:41:13.354Z,3.94
2018-01-24T03:42:13.341Z,3.9
2018-01-24T03:43:13.324Z,4.08
2018-01-24T03:44:13.585Z,3.9
2018-01-24T03:45:13.293Z,3.96
2018-01-24T03:46:13.290Z,4.02
2018-01-24T03:47:13.265Z,4.07
2018-01-24T03:48:13.249Z,4.08
2018-01-24T03:49:13.524Z,4.11
2018-01-24T03:50:13.492Z,4.15
2018-01-24T03:51:13.487Z,4.12
2018-01-24T03:52:13.213Z,4.14
2018-01-24T03:53:13.438Z,4.11
2018-01-24T03:54:13.423Z,4.14
2018-01-24T03:55:13.683Z,4.12
2018-01-24T03:56:13.391Z,4.14
2018-01-24T03:57:13.104Z,4.15
2018-01-24T03:58:13.358Z,4.15
2018-01-24T03:59:13.077Z,4.15
2018-01-24T04:00:13.083Z,4.17
2018-01-24T04:01:13.045Z,4.1
2018-01-24T04:02:13.317Z,4.11
2018-01-24T04:03:13.560Z,4.14
2018-01-24T04:04:13.266Z,4.14
2018-01-24T04:05:12.978Z,4.17
2018-01-24T04:06:12.963Z,4.11
2018-01-24T04:07:13.226Z,4.11
2018-01-24T04:08:13.206Z,4.1
2018-01-24T04:09:12.920Z,4.11
2018-01-24T04:10:13.170Z,4.11
2018-01-24T04:11:13.177Z,4.11
2018-01-24T04:12:13.164Z,4.14
2018-01-24T04:13:13.129Z,4.04
2018-01-24T04:14:12.838Z,4.2
2018-01-24T04:15:13.095Z,4.14
2018-01-24T04:16:13.348Z,4.15
2018-01-24T04:17:13.083Z,4.12
2018-01-24T04:18:13.324Z,4.18
2018-01-24T04:19:12.783Z,4.12
2018-01-24T04:20:12.743Z,4.18
2018-01-24T04:21:12.729Z,4.15
2018-01-24T04:22:12.712Z,4.12
2018-01-24T04:23:12.968Z,4.15
2018-01-24T04:24:13.220Z,4.1
2018-01-24T04:25:12.959Z,4.17
2018-01-24T04:26:12.651Z,4.15
2018-01-24T04:27:12.634Z,4.14
2018-01-24T04:28:12.623Z,4.17
2018-01-24T04:29:13.142Z,4.18
2018-01-24T04:30:12.861Z,4.21
2018-01-24T04:31:12.857Z,4.22
2018-01-24T04:32:12.855Z,4.2
2018-01-24T04:33:12.810Z,4.17
2018-01-24T04:34:13.074Z,4.21
2018-01-24T04:35:12.508Z,4.22
2018-01-24T04:36:12.782Z,4.15
2018-01-24T04:37:12.479Z,4.21
2018-01-24T04:38:12.465Z,4.28
2018-01-24T04:39:12.985Z,4.28
2018-01-24T04:40:12.700Z,4.22
2018-01-24T04:41:12.439Z,4.24
2018-01-24T04:42:12.676Z,4.21
2018-01-24T04:43:12.656Z,4.2
2018-01-24T04:44:12.383Z,4.17
2018-01-24T04:45:12.911Z,4.2
2018-01-24T04:46:12.630Z,4.3
2018-01-24T04:47:12.331Z,4.21
2018-01-24T04:48:12.303Z,4.17
2018-01-24T04:49:12.569Z,4.28
2018-01-24T04:50:12.818Z,4.3
2018-01-24T04:51:12.259Z,4.28
2018-01-24T04:52:12.256Z,4.18
2018-01-24T04:53:12.770Z,4.3
2018-01-24T04:54:12.752Z,4.3
2018-01-24T04:55:12.217Z,4.28
2018-01-24T04:56:12.186Z,4.18
2018-01-24T04:57:12.435Z,4.32
2018-01-24T04:58:12.149Z,4.32
2018-01-24T04:59:12.409Z,4.29
2018-01-24T05:00:12.394Z,4.35
2018-01-24T05:01:12.660Z,4.35
2018-01-24T05:02:12.365Z,4.39
2018-01-24T05:03:12.633Z,4.35
2018-01-24T05:04:12.328Z,4.42
2018-01-24T05:05:12.044Z,4.39
2018-01-24T05:06:12.316Z,4.44
2018-01-24T05:07:12.288Z,4.46
2018-01-24T05:08:11.995Z,4.4
2018-01-24T05:09:11.977Z,4.44
2018-01-24T05:10:12.505Z,4.44
2018-01-24T05:11:11.965Z,4.47
2018-01-24T05:12:11.932Z,4.4
2018-01-24T05:13:12.191Z,4.42
2018-01-24T05:14:12.172Z,4.35
2018-01-24T05:15:11.887Z,4.42
2018-01-24T05:16:12.409Z,4.47
2018-01-24T05:17:11.855Z,4.44
2018-01-24T05:18:11.839Z,4.53
2018-01-24T05:19:12.095Z,4.46
2018-01-24T05:20:11.808Z,4.51
2018-01-24T05:21:12.124Z,4.51
2018-01-24T05:22:12.046Z,4.51
2018-01-24T05:23:12.053Z,4.48
2018-01-24T05:24:12.016Z,4.5
2018-01-24T05:25:12.000Z,4.58
2018-01-24T05:26:11.716Z,4.54
2018-01-24T05:27:11.701Z,4.54
2018-01-24T05:28:12.246Z,4.61
2018-01-24T05:29:11.670Z,4.58
2018-01-24T05:30:11.930Z,4.64
2018-01-24T05:31:11.910Z,4.64
2018-01-24T05:32:11.893Z,4.61
2018-01-24T05:33:11.629Z,4.61
2018-01-24T05:34:11.864Z,4.57
2018-01-24T05:35:11.577Z,4.56
2018-01-24T05:36:11.831Z,4.46
2018-01-24T05:37:11.818Z,4.44
2018-01-24T05:38:11.530Z,4.54
2018-01-24T05:39:11.534Z,4.61
2018-01-24T05:40:11.814Z,4.58
2018-01-24T05:41:11.492Z,4.56
2018-01-24T05:42:11.471Z,4.46
2018-01-24T05:43:11.454Z,4.6
2018-01-24T05:44:11.717Z,4.6
2018-01-24T05:45:11.462Z,4.6
2018-01-24T05:46:11.678Z,4.61
2018-01-24T05:47:11.667Z,4.68
2018-01-24T05:48:11.992Z,4.65
2018-01-24T05:49:11.373Z,4.61
2018-01-24T05:50:11.620Z,4.72
2018-01-24T05:51:11.352Z,4.78
2018-01-24T05:52:11.330Z,4.69
2018-01-24T05:53:11.844Z,4.66
2018-01-24T05:54:11.574Z,4.76
2018-01-24T05:55:11.271Z,4.76
2018-01-24T05:56:11.525Z,4.87
2018-01-24T05:57:11.544Z,4.78
2018-01-24T05:58:11.224Z,4.91
2018-01-24T05:59:11.481Z,4.83
2018-01-24T06:00:11.196Z,4.88
2018-01-24T06:01:11.186Z,4.87
2018-01-24T06:02:11.434Z,4.92
2018-01-24T06:03:11.151Z,4.88
2018-01-24T06:04:11.406Z,4.92
2018-01-24T06:05:11.169Z,4.94
2018-01-24T06:06:11.418Z,4.95
2018-01-24T06:07:11.116Z,4.95
2018-01-24T06:08:11.354Z,4.91
2018-01-24T06:09:11.334Z,4.94
2018-01-24T06:10:11.312Z,4.97
2018-01-24T06:11:11.299Z,4.91
2018-01-24T06:12:11.292Z,5.02
2018-01-24T06:13:10.998Z,4.95
2018-01-24T06:14:10.985Z,5.06
2018-01-24T06:15:10.969Z,5.02
2018-01-24T06:16:10.958Z,5.05
2018-01-24T06:17:10.940Z,5.02
2018-01-24T06:18:11.486Z,5
2018-01-24T06:19:11.239Z,5.06
2018-01-24T06:20:10.894Z,5.03
2018-01-24T06:21:11.151Z,5.03
2018-01-24T06:22:10.886Z,5.09
2018-01-24T06:23:10.848Z,5.08
2018-01-24T06:24:11.105Z,5.12
2018-01-24T06:25:10.818Z,5.1
2018-01-24T06:26:11.095Z,5.12
2018-01-24T06:27:10.800Z,5.09
2018-01-24T06:28:11.051Z,5.12
2018-01-24T06:29:11.028Z,5.02
2018-01-24T06:30:11.016Z,5.09
2018-01-24T06:31:10.750Z,5.13
2018-01-24T06:32:11.013Z,5.02
2018-01-24T06:33:11.275Z,5.1
2018-01-24T06:34:10.973Z,5.06
2018-01-24T06:35:10.988Z,5.08
2018-01-24T06:36:11.220Z,5.05
2018-01-24T06:37:10.915Z,5.06
2018-01-24T06:38:10.894Z,5.06
2018-01-24T06:39:11.259Z,5.06
2018-01-24T06:40:10.873Z,5.06
2018-01-24T06:41:10.853Z,5.05
2018-01-24T06:42:11.108Z,5.12
2018-01-24T06:43:10.552Z,5.12
2018-01-24T06:44:10.860Z,5.21
2018-01-24T06:45:10.524Z,5.15
2018-01-24T06:46:10.778Z,5.12
2018-01-24T06:47:10.767Z,5.15
2018-01-24T06:48:11.025Z,5.15
2018-01-24T06:49:10.737Z,5.2
2018-01-24T06:50:10.504Z,5.16
2018-01-24T06:51:10.530Z,5.15
2018-01-24T06:52:10.690Z,5.18
2018-01-24T06:53:10.765Z,5.18
2018-01-24T06:54:10.658Z,5.15
2018-01-24T06:55:10.643Z,5.12
2018-01-24T06:56:10.905Z,5.23
2018-01-24T06:57:10.879Z,5.18
2018-01-24T06:58:10.800Z,5.1
2018-01-24T06:59:10.436Z,5.15
2018-01-24T07:00:11.055Z,5.12
2018-01-24T07:01:10.734Z,5.23
2018-01-24T07:02:10.541Z,5.18
2018-01-24T07:03:10.254Z,5.24
2018-01-24T07:04:10.260Z,5.16
2018-01-24T07:05:10.227Z,5.18
2018-01-24T07:06:10.211Z,5.16
2018-01-24T07:07:10.467Z,5.21
2018-01-24T07:08:10.181Z,5.23
2018-01-24T07:09:10.164Z,5.15
2018-01-24T07:10:10.422Z,5.16
2018-01-24T07:11:10.676Z,5.27
2018-01-24T07:12:10.422Z,5.27
2018-01-24T07:13:10.107Z,5.21
2018-01-24T07:14:10.095Z,5.27
2018-01-24T07:15:10.076Z,5.2
2018-01-24T07:16:10.069Z,5.18
2018-01-24T07:17:10.337Z,5.31
2018-01-24T07:18:10.304Z,5.16
2018-01-24T07:19:10.560Z,5.24
2018-01-24T07:20:10.287Z,5.26
2018-01-24T07:21:10.268Z,5.28
2018-01-24T07:22:09.992Z,5.24
2018-01-24T07:23:10.232Z,5.26
2018-01-24T07:24:10.215Z,5.27
2018-01-24T07:25:10.477Z,5.23
2018-01-24T07:26:10.200Z,5.2
2018-01-24T07:27:10.169Z,5.21
2018-01-24T07:28:09.886Z,5.27
2018-01-24T07:29:10.152Z,5.26
2018-01-24T07:30:10.061Z,5.26
2018-01-24T07:31:09.858Z,5.23
2018-01-24T07:32:10.386Z,5.21
2018-01-24T07:33:10.084Z,5.24
2018-01-24T07:34:10.074Z,5.27
2018-01-24T07:35:09.783Z,5.18
2018-01-24T07:36:09.781Z,5.21
2018-01-24T07:37:09.750Z,5.26
2018-01-24T07:38:09.753Z,5.21
2018-01-24T07:39:09.725Z,5.24
2018-01-24T07:40:09.984Z,5.26
2018-01-24T07:41:09.715Z,5.3
2018-01-24T07:42:09.678Z,5.23
2018-01-24T07:43:09.937Z,5.27
2018-01-24T07:44:09.930Z,5.2
2018-01-24T07:45:09.932Z,5.26
2018-01-24T07:46:09.641Z,5.36
2018-01-24T07:47:10.150Z,5.37
2018-01-24T07:48:09.867Z,5.34
2018-01-24T07:49:09.593Z,5.42
2018-01-24T07:50:09.846Z,5.42
2018-01-24T07:51:09.829Z,5.44
2018-01-24T07:52:09.802Z,5.48
2018-01-24T07:53:09.520Z,5.51
2018-01-24T07:54:09.792Z,5.51
2018-01-24T07:55:09.493Z,5.6
2018-01-24T07:56:09.754Z,5.66
2018-01-24T07:57:09.728Z,5.55
2018-01-24T07:58:09.742Z,5.45
2018-01-24T07:59:09.977Z,5.51
2018-01-24T08:00:09.703Z,5.49
2018-01-24T08:01:09.401Z,5.52
2018-01-24T08:02:09.388Z,5.44
2018-01-24T08:03:09.650Z,5.44
2018-01-24T08:04:09.632Z,5.46
2018-01-24T08:05:09.619Z,5.46
2018-01-24T08:06:09.602Z,5.49
2018-01-24T08:07:09.317Z,5.48
2018-01-24T08:08:09.855Z,5.48
2018-01-24T08:09:09.292Z,5.48
2018-01-24T08:10:09.298Z,5.44
2018-01-24T08:11:09.259Z,5.46
2018-01-24T08:12:09.517Z,5.48
2018-01-24T08:13:09.231Z,5.52
2018-01-24T08:14:09.494Z,5.46
2018-01-24T08:15:09.200Z,5.57
2018-01-24T08:16:09.462Z,5.55
2018-01-24T08:17:09.448Z,5.52
2018-01-24T08:18:09.446Z,5.63
2018-01-24T08:19:09.442Z,5.66
2018-01-24T08:20:09.131Z,5.63
2018-01-24T08:21:09.114Z,5.59
2018-01-24T08:22:09.379Z,5.6
2018-01-24T08:23:09.086Z,5.69
2018-01-24T08:24:09.347Z,5.63
2018-01-24T08:25:09.056Z,5.66
2018-01-24T08:26:09.610Z,5.64
2018-01-24T08:27:09.303Z,5.66
2018-01-24T08:28:09.557Z,5.75
2018-01-24T08:29:09.281Z,5.73
2018-01-24T08:30:08.984Z,5.77
2018-01-24T08:31:08.970Z,5.72
2018-01-24T08:32:08.959Z,5.8
2018-01-24T08:33:09.213Z,5.81
2018-01-24T08:34:08.941Z,5.72
2018-01-24T08:35:09.189Z,5.81
2018-01-24T08:36:08.898Z,5.73
2018-01-24T08:37:08.885Z,5.75
2018-01-24T08:38:09.187Z,5.72
2018-01-24T08:39:08.860Z,5.72
2018-01-24T08:40:09.113Z,5.87
2018-01-24T08:41:09.105Z,5.81
2018-01-24T08:42:08.816Z,5.78
2018-01-24T08:43:08.822Z,5.8
2018-01-24T08:44:09.066Z,5.85
2018-01-24T08:45:09.046Z,5.8
2018-01-24T08:46:08.776Z,5.88
2018-01-24T08:47:09.018Z,5.89
2018-01-24T08:48:09.000Z,5.99
2018-01-24T08:49:08.717Z,5.95
2018-01-24T08:50:09.011Z,5.89
2018-01-24T08:51:08.685Z,5.91
2018-01-24T08:52:08.674Z,5.89
2018-01-24T08:53:08.932Z,5.92
2018-01-24T08:54:08.647Z,5.99
2018-01-24T08:55:08.659Z,6.03
2018-01-24T08:56:08.628Z,5.98
2018-01-24T08:57:08.896Z,6.07
2018-01-24T08:58:08.859Z,6.07
2018-01-24T08:59:08.845Z,6.1
2018-01-24T09:00:08.867Z,6.24
2018-01-24T09:01:08.546Z,6.26
2018-01-24T09:02:08.532Z,6.2
2018-01-24T09:03:08.792Z,6.21
2018-01-24T09:04:08.546Z,6.28
2018-01-24T09:05:08.490Z,6.39
2018-01-24T09:06:08.476Z,6.42
2018-01-24T09:07:08.736Z,6.39
2018-01-24T09:08:08.449Z,6.51
2018-01-24T09:09:08.434Z,6.46
2018-01-24T09:10:08.713Z,6.43
2018-01-24T09:11:08.956Z,6.46
2018-01-24T09:12:08.395Z,6.51
2018-01-24T09:13:08.382Z,6.4
2018-01-24T09:14:08.369Z,6.43
2018-01-24T09:15:08.366Z,6.51
2018-01-24T09:16:08.339Z,6.58
2018-01-24T09:17:08.328Z,6.47
2018-01-24T09:18:08.581Z,6.52
2018-01-24T09:19:08.568Z,6.54
2018-01-24T09:20:08.554Z,6.55
2018-01-24T09:21:08.565Z,6.55
2018-01-24T09:22:08.537Z,6.6
2018-01-24T09:23:08.514Z,6.67
2018-01-24T09:24:08.499Z,6.64
2018-01-24T09:25:08.494Z,6.7
2018-01-24T09:26:08.213Z,6.73
2018-01-24T09:27:08.189Z,6.86
2018-01-24T09:28:08.180Z,6.82
2018-01-24T09:29:08.445Z,6.9
2018-01-24T09:30:08.182Z,7
2018-01-24T09:31:08.136Z,7.04
2018-01-24T09:32:08.134Z,7.12
2018-01-24T09:33:08.653Z,7.16
2018-01-24T09:34:08.100Z,7.16
2018-01-24T09:35:08.083Z,7.19
2018-01-24T09:36:08.357Z,7.27
2018-01-24T09:37:08.603Z,7.27
2018-01-24T09:38:08.043Z,7.34
2018-01-24T09:39:08.030Z,7.33
2018-01-24T09:40:08.303Z,7.36
2018-01-24T09:41:08.557Z,7.44
2018-01-24T09:42:08.263Z,7.49
2018-01-24T09:43:07.978Z,7.37
2018-01-24T09:44:07.996Z,7.41
2018-01-24T09:45:08.221Z,7.47
2018-01-24T09:46:08.210Z,7.58
2018-01-24T09:47:08.226Z,7.56
2018-01-24T09:48:08.453Z,7.63
2018-01-24T09:49:08.192Z,7.59
2018-01-24T09:50:08.174Z,7.75
2018-01-24T09:51:08.149Z,7.78
2018-01-24T09:52:07.875Z,7.85
2018-01-24T09:53:08.117Z,7.89
2018-01-24T09:54:07.846Z,7.91
2018-01-24T09:55:08.104Z,8.01
2018-01-24T09:56:08.096Z,8.06
2018-01-24T09:57:08.373Z,8.09
2018-01-24T09:58:08.341Z,8.06
2018-01-24T09:59:07.780Z,8.25
2018-01-24T10:00:08.044Z,8.31
2018-01-24T10:01:07.752Z,8.35
2018-01-24T10:02:08.075Z,8.35
2018-01-24T10:03:07.730Z,8.32
2018-01-24T10:04:08.040Z,8.28
2018-01-24T10:05:07.704Z,8.29
2018-01-24T10:06:08.235Z,8.35
2018-01-24T10:07:08.224Z,8.39
2018-01-24T10:08:07.952Z,8.36
2018-01-24T10:09:07.670Z,8.29
2018-01-24T10:10:07.645Z,8.4
2018-01-24T10:11:07.638Z,8.47
2018-01-24T10:12:07.902Z,8.47
2018-01-24T10:13:08.153Z,8.54
2018-01-24T10:14:07.598Z,8.58
2018-01-24T10:15:07.865Z,8.5
2018-01-24T10:16:07.575Z,8.46
2018-01-24T10:17:07.839Z,8.54
2018-01-24T10:18:07.836Z,8.54
2018-01-24T10:19:07.816Z,8.61
2018-01-24T10:20:07.528Z,8.57
2018-01-24T10:21:07.791Z,8.57
2018-01-24T10:22:07.782Z,8.47
2018-01-24T10:23:07.491Z,8.36
2018-01-24T10:24:07.482Z,8.43
2018-01-24T10:25:08.081Z,8.4
2018-01-24T10:26:07.728Z,8.31
2018-01-24T10:27:07.449Z,8.26
2018-01-24T10:28:07.439Z,8.22
2018-01-24T10:29:07.450Z,8.24
2018-01-24T10:30:07.685Z,8.36
2018-01-24T10:31:07.419Z,8.4
2018-01-24T10:32:07.400Z,8.53
2018-01-24T10:33:07.648Z,8.4
2018-01-24T10:34:07.919Z,8.47
2018-01-24T10:35:07.355Z,8.52
2018-01-24T10:36:07.650Z,8.58
2018-01-24T10:37:07.603Z,8.69
2018-01-24T10:38:07.333Z,8.95
2018-01-24T10:39:07.874Z,9
2018-01-24T10:40:07.724Z,9.08
2018-01-24T10:41:07.583Z,9.17
2018-01-24T10:42:07.272Z,9.32
2018-01-24T10:43:07.284Z,9.3
2018-01-24T10:44:07.269Z,9.29
2018-01-24T10:45:07.525Z,9.27
2018-01-24T10:46:07.521Z,9.34
2018-01-24T10:47:07.212Z,9.2
2018-01-24T10:48:07.750Z,9.19
2018-01-24T10:49:07.476Z,9.16
2018-01-24T10:50:07.739Z,9.11
2018-01-24T10:51:07.445Z,9
2018-01-24T10:52:07.430Z,9.05
2018-01-24T10:53:07.418Z,8.98
2018-01-24T10:54:07.142Z,9.03
2018-01-24T10:55:07.398Z,9.16
2018-01-24T10:56:07.134Z,9.16
2018-01-24T10:57:07.105Z,9.17
2018-01-24T10:58:07.096Z,9.16
2018-01-24T10:59:07.627Z,9
2018-01-24T11:00:07.625Z,9.01
2018-01-24T11:01:07.335Z,9.08
2018-01-24T11:02:07.048Z,9.04
2018-01-24T11:03:07.578Z,8.97
2018-01-24T11:04:07.310Z,8.82
2018-01-24T11:05:07.559Z,8.85
2018-01-24T11:06:07.279Z,8.76
2018-01-24T11:07:07.541Z,8.72
2018-01-24T11:08:06.986Z,8.74
2018-01-24T11:09:07.516Z,8.74
2018-01-24T11:10:06.982Z,8.92
2018-01-24T11:11:06.951Z,8.89
2018-01-24T11:12:07.211Z,9.05
2018-01-24T11:13:06.932Z,8.86
2018-01-24T11:14:07.538Z,8.86
2018-01-24T11:15:07.207Z,8.89
2018-01-24T11:16:07.456Z,9.03
2018-01-24T11:17:07.200Z,9.03
2018-01-24T11:18:07.145Z,9.03
2018-01-24T11:19:07.141Z,8.9
2018-01-24T11:20:06.852Z,8.82
2018-01-24T11:21:07.109Z,8.77
2018-01-24T11:22:07.102Z,8.67
2018-01-24T11:23:06.817Z,8.61
2018-01-24T11:24:06.807Z,8.8
2018-01-24T11:25:07.091Z,8.76
2018-01-24T11:26:07.335Z,8.82
2018-01-24T11:27:07.043Z,8.92
2018-01-24T11:28:06.785Z,8.98
2018-01-24T11:29:06.752Z,9
2018-01-24T11:30:07.283Z,8.92
2018-01-24T11:31:07.278Z,8.83
2018-01-24T11:32:06.997Z,8.71
2018-01-24T11:33:06.978Z,8.71
2018-01-24T11:34:06.708Z,8.82
2018-01-24T11:35:07.234Z,8.85
2018-01-24T11:36:06.944Z,8.95
2018-01-24T11:37:06.661Z,9
2018-01-24T11:38:06.927Z,9.05
2018-01-24T11:39:06.916Z,9.04
2018-01-24T11:40:06.629Z,9.04
2018-01-24T11:41:06.894Z,9.03
2018-01-24T11:42:06.916Z,9.2
2018-01-24T11:43:06.865Z,9.29
2018-01-24T11:44:06.583Z,9.3
2018-01-24T11:45:06.846Z,9.37
2018-01-24T11:46:06.833Z,9.44
2018-01-24T11:47:06.855Z,9.48
2018-01-24T11:48:06.819Z,9.34
2018-01-24T11:49:06.535Z,9.45
2018-01-24T11:50:07.012Z,9.48
2018-01-24T11:51:07.213Z,9.67
2018-01-24T11:52:06.996Z,9.7
2018-01-24T11:53:06.774Z,9.74
2018-01-24T11:54:06.608Z,9.64
2018-01-24T11:55:07.151Z,9.63
2018-01-24T11:56:06.855Z,9.45
2018-01-24T11:57:06.840Z,9.35
2018-01-24T11:58:06.561Z,9.26
2018-01-24T11:59:06.591Z,9.11
2018-01-24T12:00:06.792Z,8.97
2018-01-24T12:01:06.475Z,9.04
2018-01-24T12:02:06.390Z,8.97
2018-01-24T12:03:06.658Z,8.97
2018-01-24T12:04:06.367Z,8.87
2018-01-24T12:05:06.356Z,8.87
2018-01-24T12:06:06.907Z,8.85
2018-01-24T12:07:06.333Z,8.85
2018-01-24T12:08:06.595Z,8.85
2018-01-24T12:09:06.582Z,8.89
2018-01-24T12:10:06.300Z,8.86
2018-01-24T12:11:06.561Z,8.71
2018-01-24T12:12:06.548Z,8.77
2018-01-24T12:13:06.537Z,8.74
2018-01-24T12:14:06.263Z,8.69
2018-01-24T12:15:06.258Z,8.69
2018-01-24T12:16:06.256Z,8.72
2018-01-24T12:17:06.250Z,8.71
2018-01-24T12:18:06.211Z,8.76
2018-01-24T12:19:06.478Z,8.77
2018-01-24T12:20:06.733Z,8.72
2018-01-24T12:21:06.181Z,8.62
2018-01-24T12:22:06.454Z,8.67
2018-01-24T12:23:06.428Z,8.65
2018-01-24T12:24:06.415Z,8.57
2018-01-24T12:25:06.145Z,8.53
2018-01-24T12:26:06.122Z,8.46
2018-01-24T12:27:06.382Z,8.36
2018-01-24T12:28:06.392Z,8.36
2018-01-24T12:29:06.368Z,8.28
2018-01-24T12:30:06.091Z,8.34
2018-01-24T12:31:06.079Z,8.35
2018-01-24T12:32:06.056Z,8.36
2018-01-24T12:33:06.042Z,8.32
2018-01-24T12:34:06.326Z,8.42
2018-01-24T12:35:06.029Z,8.36
2018-01-24T12:36:06.011Z,8.28
2018-01-24T12:37:05.997Z,8.22
2018-01-24T12:38:06.259Z,8.21
2018-01-24T12:39:05.974Z,8.19
2018-01-24T12:40:05.961Z,8.19
2018-01-24T12:41:05.961Z,8.19
2018-01-24T12:42:05.938Z,8.28
2018-01-24T12:43:05.928Z,8.31
2018-01-24T12:44:05.917Z,8.26
2018-01-24T12:45:06.468Z,8.35
2018-01-24T12:46:05.893Z,8.35
2018-01-24T12:47:05.896Z,8.28
2018-01-24T12:48:06.147Z,8.26
2018-01-24T12:49:05.874Z,8.31
2018-01-24T12:50:06.119Z,8.35
2018-01-24T12:51:06.108Z,8.32
2018-01-24T12:52:06.138Z,8.34
2018-01-24T12:53:05.813Z,8.4
2018-01-24T12:54:06.070Z,8.36
2018-01-24T12:55:06.334Z,8.43
2018-01-24T12:56:05.777Z,8.47
2018-01-24T12:57:06.075Z,8.53
2018-01-24T12:58:05.754Z,8.52
2018-01-24T12:59:05.765Z,8.61
2018-01-24T13:00:05.738Z,8.71
2018-01-24T13:01:05.739Z,8.72
2018-01-24T13:02:06.276Z,8.67
2018-01-24T13:03:05.697Z,8.61
2018-01-24T13:04:06.228Z,8.61
2018-01-24T13:05:05.955Z,8.58
2018-01-24T13:06:06.208Z,8.5
2018-01-24T13:07:05.651Z,8.52
2018-01-24T13:08:05.957Z,8.6
2018-01-24T13:09:05.649Z,8.62
2018-01-24T13:10:05.927Z,8.69
2018-01-24T13:11:05.605Z,8.64
2018-01-24T13:12:05.594Z,8.69
2018-01-24T13:13:05.584Z,8.68
2018-01-24T13:14:05.846Z,8.71
2018-01-24T13:15:06.101Z,8.72
2018-01-24T13:16:05.549Z,8.77
2018-01-24T13:17:05.807Z,8.74
2018-01-24T13:18:05.803Z,8.72
2018-01-24T13:19:05.787Z,8.72
2018-01-24T13:20:05.777Z,8.69
2018-01-24T13:21:05.490Z,8.77